Time;durP1;ratioP1;P1;durP2;ratioP2;P2;SDS_P1;SDS_P2;PMS_P1;PMS_P2;Temp;Humidity;BMP_temperature;BMP_pressure;BME280_temperature;BME280_humidity;BME280_pressure;Samples;Min_cycle;Max_cycle;Signal;HPM_P1;HPM_P2
2022/08/22 00:00:52;;;;;;;6.27;2.67;;;;;;;20.33;56.59;99276.44;4924670;29;20515;-77
2022/08/22 00:03:38;;;;;;;3.13;1.57;;;;;;;20.25;56.94;99284.44;4924933;29;20503;-77
2022/08/22 00:06:24;;;;;;;4.00;1.90;;;;;;;20.11;57.72;99284.09;4924460;29;20231;-77
2022/08/22 00:09:02;;;;;;;5.87;2.27;;;;;;;19.99;58.30;99280.13;4924143;29;20518;-76
2022/08/22 00:11:30;;;;;;;2.87;2.43;;;;;;;19.95;58.43;99276.09;4924048;29;20594;-76
2022/08/22 00:14:26;;;;;;;2.80;2.10;;;;;;;19.95;58.52;99268.09;4908326;29;20490;-77
2022/08/22 00:17:01;;;;;;;3.07;2.07;;;;;;;19.94;58.47;99274.44;4924020;29;20843;-77
2022/08/22 00:19:26;;;;;;;5.90;3.07;;;;;;;19.94;58.43;99270.97;4924019;29;20454;-77
2022/08/22 00:22:03;;;;;;;3.57;2.80;;;;;;;19.94;58.00;99274.44;4923134;29;20565;-76
2022/08/22 00:24:37;;;;;;;3.40;2.30;;;;;;;19.95;57.87;99267.28;4923030;29;20218;-77
2022/08/22 00:27:17;;;;;;;2.10;1.80;;;;;;;19.96;57.63;99272.47;4924207;29;20470;-77
2022/08/22 00:30:08;;;;;;;3.33;2.33;;;;;;;19.96;57.53;99269.78;4924557;29;20499;-77
2022/08/22 00:32:45;;;;;;;2.70;2.40;;;;;;;19.97;57.53;99268.78;4923976;29;21587;-77
2022/08/22 00:35:18;;;;;;;3.27;2.53;;;;;;;19.98;57.29;99273.13;4923157;29;20258;-77
2022/08/22 00:37:51;;;;;;;2.77;2.10;;;;;;;19.99;57.33;99280.13;4923830;29;20461;-77
2022/08/22 00:40:44;;;;;;;3.77;2.97;;;;;;;19.95;57.59;99272.63;4923486;29;20551;-77
2022/08/22 00:43:30;;;;;;;3.17;2.27;;;;;;;19.88;58.10;99270.63;4923968;29;20474;-77
2022/08/22 00:46:14;;;;;;;2.70;2.50;;;;;;;19.78;58.51;99271.78;4922090;29;20465;-76
2022/08/22 00:48:46;;;;;;;3.13;2.60;;;;;;;19.72;58.72;99270.59;4923587;29;20990;-77
2022/08/22 00:51:33;;;;;;;5.60;3.33;;;;;;;19.71;59.18;99279.56;4923652;29;20489;-77
2022/08/22 00:54:07;;;;;;;6.37;3.60;;;;;;;19.71;59.35;99268.09;4922955;29;20452;-77
2022/08/22 00:56:54;;;;;;;3.27;2.37;;;;;;;19.70;59.65;99271.75;4921950;29;20463;-77
2022/08/22 00:59:38;;;;;;;2.73;2.30;;;;;;;19.67;59.58;99268.41;4923778;29;20542;-77
2022/08/22 01:02:39;;;;;;;3.20;2.17;;;;;;;19.66;60.14;99277.44;4920179;29;21218;-77
2022/08/22 01:05:35;;;;;;;2.27;2.07;;;;;;;19.65;60.08;99274.88;4922912;29;20859;-77
2022/08/22 01:08:32;;;;;;;2.43;2.23;;;;;;;19.56;60.39;99267.88;4922393;29;20465;-77
2022/08/22 01:11:23;;;;;;;2.90;2.47;;;;;;;19.44;60.71;99275.31;4923500;29;20489;-77
2022/08/22 01:14:17;;;;;;;5.93;3.87;;;;;;;19.39;61.18;99269.69;4923191;29;20988;-77
2022/08/22 01:16:49;;;;;;;3.73;2.50;;;;;;;19.35;61.13;99271.81;4921671;29;20942;-77
2022/08/22 01:19:23;;;;;;;3.13;2.53;;;;;;;19.32;61.42;99268.66;4922049;29;20497;-77
2022/08/22 01:22:24;;;;;;;3.43;2.03;;;;;;;19.29;61.91;99263.66;4922549;29;20480;-77
2022/08/22 01:25:24;;;;;;;3.97;3.00;;;;;;;19.26;61.63;99259.47;4891119;29;20462;-77
2022/08/22 01:28:21;;;;;;;5.87;3.00;;;;;;;19.21;62.10;99259.97;4922134;29;20455;-76
2022/08/22 01:31:29;;;;;;;6.10;3.30;;;;;;;19.17;62.39;99252.44;4905933;29;20514;-77
2022/08/22 01:34:25;;;;;;;2.70;2.50;;;;;;;19.04;62.99;99254.72;4922455;29;20457;-77
2022/08/22 01:37:30;;;;;;;4.00;3.17;;;;;;;18.95;63.53;99252.03;4923090;29;20576;-77
2022/08/22 01:40:07;;;;;;;2.67;2.33;;;;;;;18.91;63.51;99242.72;4923245;29;20556;-77
2022/08/22 01:42:51;;;;;;;2.43;2.23;;;;;;;18.88;63.78;99242.22;4922517;29;21214;-77
2022/08/22 01:45:41;;;;;;;3.53;2.23;;;;;;;18.86;63.78;99244.19;4921892;29;20541;-77
2022/08/22 01:48:19;;;;;;;4.13;2.83;;;;;;;18.85;63.89;99237.19;4913531;29;20470;-77
2022/08/22 01:50:51;;;;;;;5.00;2.80;;;;;;;18.85;63.83;99240.69;4921859;29;20490;-77
2022/08/22 01:53:37;;;;;;;3.23;2.50;;;;;;;18.84;64.37;99230.22;4922419;29;20447;-76
2022/08/22 01:56:11;;;;;;;5.23;3.20;;;;;;;18.83;64.19;99234.69;4921851;29;20487;-77
2022/08/22 01:58:52;;;;;;;3.00;2.27;;;;;;;18.82;64.36;99240.16;4920787;29;21009;-77
2022/08/22 02:01:39;;;;;;;3.20;2.90;;;;;;;18.77;64.35;99236.19;4919975;29;21033;-77
2022/08/22 02:04:20;;;;;;;2.80;2.60;;;;;;;18.72;64.38;99233.13;4921642;29;20947;-77
2022/08/22 02:06:57;;;;;;;4.00;3.60;;;;;;;18.67;64.71;99232.75;4925641;29;20462;-75
2022/08/22 02:09:40;;;;;;;3.63;2.57;;;;;;;18.63;64.77;99226.06;4924896;29;20589;-75
2022/08/22 02:12:15;;;;;;;4.73;2.50;;;;;;;18.59;64.92;99230.06;4926258;29;20485;-75
2022/08/22 02:14:50;;;;;;;3.37;2.47;;;;;;;18.53;64.88;99226.22;4925080;29;20466;-75
2022/08/22 02:17:25;;;;;;;2.60;2.40;;;;;;;18.42;65.23;99230.97;4924520;29;21004;-75
2022/08/22 02:20:01;;;;;;;4.30;2.93;;;;;;;18.26;65.83;99227.22;4924913;29;20894;-75
2022/08/22 02:22:41;;;;;;;4.10;2.40;;;;;;;18.09;66.16;99233.38;4925495;29;20521;-75
2022/08/22 02:25:20;;;;;;;3.17;2.87;;;;;;;17.96;66.48;99219.66;4925747;29;20869;-75
2022/08/22 02:28:07;;;;;;;3.20;2.90;;;;;;;17.82;66.77;99227.22;4921554;29;20468;-75
2022/08/22 02:31:01;;;;;;;6.17;2.77;;;;;;;17.68;67.22;99233.84;4924110;29;20486;-75
2022/08/22 02:33:45;;;;;;;3.37;3.00;;;;;;;17.53;67.60;99235.38;4925500;29;20460;-75
2022/08/22 02:36:31;;;;;;;3.30;3.00;;;;;;;17.44;67.96;99238.94;4924568;29;20621;-75
2022/08/22 02:39:19;;;;;;;3.63;2.40;;;;;;;17.39;67.94;99228.78;4924435;29;20572;-74
2022/08/22 02:41:58;;;;;;;4.57;3.50;;;;;;;17.43;67.89;99230.13;4926143;29;20473;-74
2022/08/22 02:44:31;;;;;;;2.80;2.60;;;;;;;17.48;67.67;99227.88;4925413;29;20645;-74
2022/08/22 02:47:22;;;;;;;4.00;3.37;;;;;;;17.55;67.69;99227.25;4925753;29;20460;-74
2022/08/22 02:50:03;;;;;;;5.70;2.33;;;;;;;17.59;67.54;99220.66;4922497;29;21031;-74
2022/08/22 02:52:46;;;;;;;3.50;3.20;;;;;;;17.61;67.70;99221.34;4924858;29;20485;-74
2022/08/22 02:55:20;;;;;;;2.40;2.20;;;;;;;17.62;67.74;99215.88;4925297;29;20449;-74
2022/08/22 02:57:59;;;;;;;2.90;2.70;;;;;;;17.65;67.65;99223.53;4924413;29;20507;-74
2022/08/22 03:00:28;;;;;;;3.07;2.77;;;;;;;17.67;67.45;99221.56;4923053;29;21001;-74
2022/08/22 03:03:03;;;;;;;2.43;2.23;;;;;;;17.70;67.40;99225.75;4924901;28;20467;-75
2022/08/22 03:05:48;;;;;;;2.60;2.40;;;;;;;17.73;67.39;99227.25;4925072;29;20473;-74
2022/08/22 03:08:33;;;;;;;4.53;3.10;;;;;;;17.76;67.47;99218.97;4925143;29;20519;-74
2022/08/22 03:11:14;;;;;;;11.53;3.50;;;;;;;17.78;67.18;99223.16;4923008;29;20495;-74
2022/08/22 03:14:28;;;;;;;3.87;2.90;;;;;;;17.76;67.40;99230.44;4925379;29;20906;-74
2022/08/22 03:17:02;;;;;;;3.40;2.60;;;;;;;17.75;67.27;99225.28;4867302;29;20578;-74
2022/08/22 03:19:47;;;;;;;5.03;2.70;;;;;;;17.75;67.15;99228.78;4923974;29;20484;-74
2022/08/22 03:22:23;;;;;;;4.23;3.40;;;;;;;17.73;67.10;99236.06;4928907;29;20516;-74
2022/08/22 03:25:08;;;;;;;3.73;3.03;;;;;;;17.73;67.15;99229.91;4928705;29;20475;-75
2022/08/22 03:27:48;;;;;;;5.07;3.67;;;;;;;17.71;67.18;99227.41;4928952;29;20495;-74
2022/08/22 03:30:21;;;;;;;2.63;2.20;;;;;;;17.64;67.37;99240.47;4927635;29;20497;-74
2022/08/22 03:32:58;;;;;;;4.60;2.90;;;;;;;17.53;67.55;99242.53;4928021;29;20557;-74
2022/08/22 03:35:37;;;;;;;3.87;3.00;;;;;;;17.40;67.77;99238.41;4927007;29;20503;-74
2022/08/22 03:38:27;;;;;;;2.93;1.83;;;;;;;17.35;67.99;99232.72;4928635;29;20469;-74
2022/08/22 03:40:55;;;;;;;4.90;2.80;;;;;;;17.38;68.14;99239.53;4920286;29;20644;-74
2022/08/22 03:44:03;;;;;;;2.63;2.30;;;;;;;17.36;68.16;99249.47;4928537;29;20495;-74
2022/08/22 03:47:02;;;;;;;3.53;3.20;;;;;;;17.25;68.37;99250.50;4928305;29;21566;-74
2022/08/22 03:49:58;;;;;;;3.80;2.90;;;;;;;17.15;68.70;99247.94;4927377;29;20487;-74
2022/08/22 03:53:06;;;;;;;3.30;2.30;;;;;;;17.15;68.63;99247.09;4925916;29;20484;-74
2022/08/22 03:56:03;;;;;;;3.40;3.10;;;;;;;17.16;68.59;99246.09;4926533;29;20457;-74
2022/08/22 03:58:47;;;;;;;3.37;3.07;;;;;;;17.18;68.59;99242.31;4927898;29;20444;-74
2022/08/22 04:01:30;;;;;;;5.10;2.70;;;;;;;17.26;68.54;99252.19;4926363;29;20479;-74
2022/08/22 04:04:15;;;;;;;5.10;4.33;;;;;;;17.30;68.37;99250.91;4927160;29;20460;-74
2022/08/22 04:06:59;;;;;;;5.20;3.20;;;;;;;17.26;67.99;99246.91;4928189;29;20547;-74
2022/08/22 04:09:42;;;;;;;4.90;3.40;;;;;;;17.18;68.07;99252.94;4928017;29;20526;-74
2022/08/22 04:12:27;;;;;;;6.60;3.67;;;;;;;17.16;68.02;99248.75;4927147;29;20481;-75
2022/08/22 04:15:02;;;;;;;4.60;3.67;;;;;;;17.19;68.08;99259.06;4928253;29;20449;-74
2022/08/22 04:17:54;;;;;;;3.27;2.53;;;;;;;17.23;67.98;99255.16;4927717;29;20921;-74
2022/08/22 04:20:38;;;;;;;5.27;3.83;;;;;;;17.22;67.88;99254.28;4925575;29;20457;-75
2022/08/22 04:23:40;;;;;;;5.07;4.17;;;;;;;17.16;68.06;99249.59;4925741;29;21216;-74
2022/08/22 04:26:13;;;;;;;5.17;3.37;;;;;;;17.10;68.10;99259.97;4927832;29;20455;-74
2022/08/22 04:28:55;;;;;;;4.33;3.47;;;;;;;17.08;68.19;99262.75;4927475;29;20540;-74
2022/08/22 04:31:32;;;;;;;4.30;3.10;;;;;;;17.05;68.23;99267.53;4926016;29;20485;-74
2022/08/22 04:34:44;;;;;;;6.40;3.70;;;;;;;17.03;68.28;99265.03;4925267;29;20946;-74
2022/08/22 04:37:24;;;;;;;3.80;2.90;;;;;;;17.00;68.34;99271.47;4922173;29;21071;-74
2022/08/22 04:39:56;;;;;;;3.37;3.07;;;;;;;16.92;68.55;99274.00;4923674;29;21122;-74
2022/08/22 04:42:31;;;;;;;2.87;2.53;;;;;;;16.83;68.71;99274.06;4926617;29;20997;-74
2022/08/22 04:45:16;;;;;;;6.40;3.00;;;;;;;16.79;68.78;99268.19;4926087;29;20460;-74
2022/08/22 04:47:43;;;;;;;3.03;2.73;;;;;;;16.77;68.77;99272.84;4927354;29;20922;-74
2022/08/22 04:50:15;;;;;;;5.20;3.40;;;;;;;16.78;68.72;99267.38;4926438;29;20494;-74
2022/08/22 04:53:08;;;;;;;6.00;3.53;;;;;;;16.80;68.81;99265.41;4926372;29;20494;-74
2022/08/22 04:56:10;;;;;;;3.43;2.97;;;;;;;16.85;68.73;99264.13;4925632;29;20467;-74
2022/08/22 04:58:53;;;;;;;3.63;3.33;;;;;;;16.90;68.59;99264.53;4926388;29;20467;-74
2022/08/22 05:01:25;;;;;;;4.37;3.57;;;;;;;16.98;68.33;99261.97;4925523;29;21064;-74
2022/08/22 05:04:01;;;;;;;5.17;3.60;;;;;;;17.10;68.70;99263.47;4924209;29;20584;-74
2022/08/22 05:06:31;;;;;;;3.60;2.80;;;;;;;17.18;68.37;99262.72;4926510;29;20478;-74
2022/08/22 05:09:04;;;;;;;7.37;4.10;;;;;;;17.30;68.14;99260.69;4926099;29;20493;-74
2022/08/22 05:11:32;;;;;;;6.40;3.50;;;;;;;17.54;67.67;99265.44;4926865;29;20488;-74
2022/08/22 05:14:04;;;;;;;4.17;2.90;;;;;;;18.00;66.51;99276.84;4922908;29;20498;-74
2022/08/22 05:16:36;;;;;;;5.37;3.20;;;;;;;18.48;64.80;99268.41;4917703;29;20488;-74
2022/08/22 05:19:15;;;;;;;3.73;2.77;;;;;;;18.93;63.21;99271.81;4920881;29;20972;-74
2022/08/22 05:21:42;;;;;;;4.90;3.20;;;;;;;19.28;61.66;99269.97;4921317;29;20481;-74
2022/08/22 05:24:15;;;;;;;4.90;2.90;;;;;;;19.72;60.64;99265.28;4918866;29;20493;-74
2022/08/22 05:26:45;;;;;;;4.33;2.93;;;;;;;20.19;59.05;99264.59;4918778;29;20466;-74
2022/08/22 05:29:16;;;;;;;4.33;2.60;;;;;;;20.64;57.87;99257.06;4919734;29;20485;-74
2022/08/22 05:31:57;;;;;;;5.20;3.40;;;;;;;21.11;56.23;99261.56;4924819;29;20564;-74
2022/08/22 05:34:27;;;;;;;3.17;2.87;;;;;;;21.55;54.96;99263.69;4926385;29;20452;-74
2022/08/22 05:37:05;;;;;;;4.97;3.10;;;;;;;21.97;53.52;99270.44;4924270;29;20476;-74
2022/08/22 05:39:32;;;;;;;3.80;3.40;;;;;;;22.22;53.05;99279.09;4920452;29;20487;-74
2022/08/22 05:42:01;;;;;;;3.10;2.70;;;;;;;22.14;52.76;99271.94;4915473;29;20485;-74
2022/08/22 05:44:33;;;;;;;3.83;2.93;;;;;;;21.85;53.33;99275.38;4920467;29;20466;-74
2022/08/22 05:47:11;;;;;;;2.77;2.47;;;;;;;21.83;53.72;99272.03;4918613;29;20482;-74
2022/08/22 05:49:39;;;;;;;4.43;3.00;;;;;;;21.97;53.43;99271.25;4919842;29;20598;-74
2022/08/22 05:52:12;;;;;;;3.63;2.70;;;;;;;21.91;53.58;99271.16;4919501;29;20524;-74
2022/08/22 05:54:50;;;;;;;9.40;3.07;;;;;;;21.70;53.98;99272.63;4919125;29;20459;-74
2022/08/22 05:57:30;;;;;;;5.17;3.20;;;;;;;21.56;54.31;99273.41;4918092;29;20473;-74
2022/08/22 06:00:07;;;;;;;3.37;2.80;;;;;;;21.42;54.49;99278.47;4919445;29;20451;-74
2022/08/22 06:03:13;;;;;;;4.10;3.60;;;;;;;21.46;53.35;99270.94;4917483;29;21060;-74
2022/08/22 06:05:44;;;;;;;6.60;3.30;;;;;;;21.41;53.21;99282.16;4918462;29;20549;-75
2022/08/22 06:08:25;;;;;;;7.10;3.83;;;;;;;21.41;53.07;99275.97;4917468;29;20862;-75
2022/08/22 06:11:00;;;;;;;3.90;3.23;;;;;;;21.59;52.95;99275.72;4918112;29;20560;-74
2022/08/22 06:13:43;;;;;;;4.10;2.60;;;;;;;22.17;51.43;99278.78;4919338;29;20482;-74
2022/08/22 06:16:29;;;;;;;4.50;2.90;;;;;;;22.95;49.55;99278.38;4919308;29;21115;-75
2022/08/22 06:18:56;;;;;;;6.33;2.73;;;;;;;23.57;48.23;99277.09;4917475;29;20508;-75
2022/08/22 06:21:31;;;;;;;3.60;2.70;;;;;;;24.22;46.61;99283.31;4917942;29;20890;-75
2022/08/22 06:23:59;;;;;;;4.47;3.10;;;;;;;24.82;45.44;99281.06;4918602;29;20476;-75
2022/08/22 06:26:34;;;;;;;3.97;2.77;;;;;;;25.41;44.33;99281.56;4919034;29;20463;-75
2022/08/22 06:29:00;;;;;;;4.97;2.80;;;;;;;25.80;42.92;99288.94;4917546;29;20581;-75
2022/08/22 06:31:31;;;;;;;3.70;3.40;;;;;;;26.10;42.45;99291.28;4918781;29;20573;-75
2022/08/22 06:34:12;;;;;;;3.37;3.00;;;;;;;26.39;41.70;99296.25;4918268;29;20545;-75
2022/08/22 06:36:40;;;;;;;6.20;3.40;;;;;;;26.66;41.00;99297.09;4916278;29;21780;-76
2022/08/22 06:39:11;;;;;;;3.27;2.93;;;;;;;26.93;40.23;99294.34;4919696;29;20448;-72
2022/08/22 06:42:03;;;;;;;2.80;2.60;;;;;;;27.00;39.81;99294.31;4919001;29;20481;-75
2022/08/22 06:44:38;;;;;;;4.00;3.37;;;;;;;26.86;40.15;99302.41;4918095;29;20519;-75
2022/08/22 06:47:09;;;;;;;3.90;2.77;;;;;;;26.40;41.18;99297.06;4916419;29;20484;-75
2022/08/22 06:49:37;;;;;;;3.90;3.60;;;;;;;25.80;42.44;99297.81;4918923;29;20482;-75
2022/08/22 06:52:11;;;;;;;4.00;3.20;;;;;;;25.41;43.63;99295.00;4921719;29;20847;-75
2022/08/22 06:54:42;;;;;;;4.40;4.00;;;;;;;25.31;44.02;99301.59;4922580;29;20492;-75
2022/08/22 06:57:25;;;;;;;4.53;3.13;;;;;;;25.21;44.51;99300.31;4921292;29;20468;-75
2022/08/22 06:59:53;;;;;;;4.87;3.27;;;;;;;25.11;45.05;99303.31;4923399;29;20468;-75
2022/08/22 07:02:19;;;;;;;4.60;3.30;;;;;;;24.86;45.46;99311.06;4922971;29;20504;-75
2022/08/22 07:04:48;;;;;;;5.73;5.00;;;;;;;24.56;46.06;99315.81;4922761;29;20594;-75
2022/08/22 07:07:17;;;;;;;6.07;3.57;;;;;;;24.35;46.47;99313.97;4921448;29;20512;-75
2022/08/22 07:09:49;;;;;;;3.57;3.27;;;;;;;24.17;46.22;99317.09;4922491;29;20548;-75
2022/08/22 07:12:19;;;;;;;3.90;3.50;;;;;;;23.83;46.52;99318.63;4922389;29;20502;-75
2022/08/22 07:14:49;;;;;;;3.23;2.93;;;;;;;23.67;47.08;99321.53;4920980;29;20524;-75
2022/08/22 07:17:24;;;;;;;3.60;3.20;;;;;;;23.85;46.68;99317.44;4923491;29;20479;-75
2022/08/22 07:20:25;;;;;;;5.07;3.63;;;;;;;24.47;45.71;99317.81;4923023;29;20525;-75
2022/08/22 07:23:07;;;;;;;4.53;2.77;;;;;;;25.10;44.23;99310.56;4921926;29;20504;-75
2022/08/22 07:25:47;;;;;;;7.30;3.03;;;;;;;25.82;42.30;99306.53;4921731;29;20484;-75
2022/08/22 07:28:18;;;;;;;3.40;2.80;;;;;;;26.44;41.01;99303.72;4922730;29;20515;-75
2022/08/22 07:31:12;;;;;;;5.73;3.60;;;;;;;27.03;39.56;99308.22;4921149;29;20554;-75
2022/08/22 07:33:47;;;;;;;8.87;3.20;;;;;;;27.50;38.70;99298.09;4920065;29;20472;-75
2022/08/22 07:36:36;;;;;;;6.00;3.70;;;;;;;28.03;37.73;99302.38;4919838;29;20997;-75
2022/08/22 07:39:35;;;;;;;4.50;2.57;;;;;;;28.47;36.27;99297.06;4919702;29;20461;-75
2022/08/22 07:42:15;;;;;;;3.57;3.13;;;;;;;28.65;36.01;99297.94;4922516;29;20485;-75
2022/08/22 07:44:59;;;;;;;3.30;2.90;;;;;;;28.91;35.41;99290.59;4920037;29;21148;-75
2022/08/22 07:47:36;;;;;;;4.37;3.00;;;;;;;29.28;35.05;99294.13;4920314;29;20471;-75
2022/08/22 07:50:06;;;;;;;9.13;3.43;;;;;;;29.60;34.16;99288.53;4921234;29;20496;-75
2022/08/22 07:52:40;;;;;;;5.80;3.77;;;;;;;29.84;33.98;99289.47;4918998;29;20499;-75
2022/08/22 07:55:18;;;;;;;4.47;3.77;;;;;;;30.16;33.12;99287.31;4922140;29;20463;-75
2022/08/22 07:57:52;;;;;;;6.37;3.63;;;;;;;30.46;32.69;99274.72;4920292;29;20459;-75
2022/08/22 08:00:20;;;;;;;7.37;3.40;;;;;;;30.73;32.06;99286.75;4921543;29;20463;-75
2022/08/22 08:02:51;;;;;;;6.57;3.93;;;;;;;30.72;32.04;99282.38;4919989;29;20463;-75
2022/08/22 08:05:20;;;;;;;4.70;3.27;;;;;;;30.37;31.94;99279.69;4921963;29;20466;-76
2022/08/22 08:07:47;;;;;;;4.07;3.40;;;;;;;30.38;31.76;99289.44;4920359;29;21062;-74
2022/08/22 08:10:25;;;;;;;4.63;3.47;;;;;;;30.20;32.22;99293.88;4920193;29;20482;-76
2022/08/22 08:12:54;;;;;;;3.33;2.77;;;;;;;29.97;32.45;99300.09;4922129;29;21425;-77
2022/08/22 08:15:22;;;;;;;3.73;3.13;;;;;;;30.12;32.04;99288.81;4922701;29;20975;-74
2022/08/22 08:17:53;;;;;;;3.03;2.77;;;;;;;30.56;31.46;99289.34;4920523;29;20494;-75
2022/08/22 08:20:21;;;;;;;4.30;3.10;;;;;;;30.85;31.09;99298.44;4919521;29;20686;-76
2022/08/22 08:22:49;;;;;;;4.73;3.80;;;;;;;31.09;30.91;99291.09;4922150;29;20459;-77
2022/08/22 08:25:19;;;;;;;6.07;3.47;;;;;;;31.02;30.99;99287.69;4920843;29;20471;-76
2022/08/22 08:30:28;;;;;;;3.63;2.87;;;;;;;30.81;31.33;99288.28;4922056;29;20505;-74
2022/08/22 08:32:56;;;;;;;5.23;3.63;;;;;;;30.63;31.27;99287.34;4920853;29;20492;-76
2022/08/22 08:35:34;;;;;;;4.00;3.60;;;;;;;30.69;30.86;99287.47;4921382;29;20214;-77
2022/08/22 08:38:14;;;;;;;4.67;3.50;;;;;;;30.72;30.91;99290.53;4918915;29;20459;-76
2022/08/22 08:41:04;;;;;;;3.87;3.43;;;;;;;30.48;31.03;99278.03;4920202;29;20470;-74
2022/08/22 08:43:56;;;;;;;4.40;3.73;;;;;;;30.18;31.35;99279.75;4920154;29;21277;-76
2022/08/22 08:46:47;;;;;;;6.40;3.90;;;;;;;29.92;31.48;99272.88;4921164;29;20479;-77
2022/08/22 08:49:37;;;;;;;5.10;3.13;;;;;;;29.70;32.00;99269.03;4919102;29;20483;-75
2022/08/22 08:52:08;;;;;;;3.77;2.83;;;;;;;29.48;32.26;99266.81;4921418;29;20514;-74
2022/08/22 08:54:54;;;;;;;4.90;3.63;;;;;;;29.25;33.12;99272.13;4921360;29;20463;-74
2022/08/22 08:57:38;;;;;;;4.70;3.60;;;;;;;29.15;33.55;99264.56;4921221;29;20457;-77
2022/08/22 09:00:10;;;;;;;3.13;2.73;;;;;;;28.86;34.02;99274.22;4918064;29;20868;-73
2022/08/22 09:02:51;;;;;;;5.23;2.80;;;;;;;28.56;34.34;99279.53;4921232;29;20557;-76
2022/08/22 09:05:47;;;;;;;5.20;3.67;;;;;;;28.57;34.71;99273.06;4920755;29;20454;-76
2022/08/22 09:08:25;;;;;;;3.90;3.23;;;;;;;28.44;34.99;99269.44;4920984;29;20526;-74
2022/08/22 09:11:15;;;;;;;4.10;2.47;;;;;;;28.47;35.12;99272.75;4919094;29;21310;-75
2022/08/22 09:13:49;;;;;;;3.50;2.57;;;;;;;28.61;35.10;99263.47;4919633;29;20606;-76
2022/08/22 09:16:41;;;;;;;3.93;3.03;;;;;;;28.61;35.34;99269.69;4919589;29;20470;-75
2022/08/22 09:19:43;;;;;;;6.73;3.60;;;;;;;28.61;35.30;99277.78;4920338;29;20474;-76
2022/08/22 09:22:11;;;;;;;3.40;3.10;;;;;;;28.57;35.36;99271.19;4917611;29;20507;-76
2022/08/22 09:24:42;;;;;;;4.27;2.60;;;;;;;28.51;35.81;99276.66;4920078;29;20469;-76
2022/08/22 09:27:17;;;;;;;4.47;3.47;;;;;;;28.54;35.71;99278.91;4919630;29;20486;-76
2022/08/22 09:30:04;;;;;;;3.30;3.00;;;;;;;28.57;35.71;99281.16;4920120;29;21269;-74
2022/08/22 09:33:01;;;;;;;3.93;2.90;;;;;;;28.59;35.32;99277.19;4919180;29;20478;-76
2022/08/22 09:35:46;;;;;;;5.80;3.50;;;;;;;28.66;35.36;99283.34;4921017;29;20456;-74
2022/08/22 09:38:34;;;;;;;4.07;3.13;;;;;;;28.74;35.42;99274.13;4920401;29;20467;-74
2022/08/22 09:41:26;;;;;;;3.47;3.17;;;;;;;28.61;35.27;99269.69;4918441;29;20487;-74
2022/08/22 09:44:12;;;;;;;3.17;2.67;;;;;;;28.71;34.97;99269.19;4919284;29;20474;-76
2022/08/22 09:46:56;;;;;;;4.83;3.13;;;;;;;28.72;35.11;99262.72;4919730;29;20486;-76
2022/08/22 09:49:36;;;;;;;4.93;3.13;;;;;;;28.82;34.81;99268.44;4920167;29;21093;-76
2022/08/22 09:52:09;;;;;;;5.37;2.87;;;;;;;28.95;34.74;99269.31;4918512;29;20494;-74
2022/08/22 09:54:52;;;;;;;10.47;2.87;;;;;;;29.04;33.36;99265.31;4919131;28;20971;-75
2022/08/22 09:57:43;;;;;;;2.83;2.63;;;;;;;29.02;33.21;99264.69;4919700;29;20853;-74
2022/08/22 10:00:21;;;;;;;3.03;2.77;;;;;;;29.01;33.07;99268.44;4912573;29;20483;-76
2022/08/22 10:03:04;;;;;;;3.20;2.53;;;;;;;29.20;32.60;99266.59;4918325;29;20455;-75
2022/08/22 10:05:45;;;;;;;3.00;2.50;;;;;;;29.43;31.96;99257.72;4919422;29;20474;-76
2022/08/22 10:08:39;;;;;;;6.90;3.63;;;;;;;29.60;31.95;99253.34;4919565;29;20459;-76
2022/08/22 10:11:25;;;;;;;3.23;2.37;;;;;;;29.78;31.57;99257.88;4918199;29;20539;-75
2022/08/22 10:13:56;;;;;;;3.63;3.20;;;;;;;29.82;31.69;99256.38;4917937;29;20534;-76
2022/08/22 10:16:36;;;;;;;3.90;3.50;;;;;;;29.87;31.94;99253.81;4919610;29;20566;-74
2022/08/22 10:19:28;;;;;;;3.40;2.37;;;;;;;29.84;32.10;99258.84;4919026;29;20558;-77
2022/08/22 10:22:17;;;;;;;8.10;3.17;;;;;;;29.83;31.79;99251.78;4918929;29;20526;-74
2022/08/22 10:24:46;;;;;;;4.30;2.90;;;;;;;29.85;32.45;99252.38;4918241;29;20984;-76
2022/08/22 10:27:18;;;;;;;4.07;2.73;;;;;;;29.84;32.30;99248.00;4917871;29;20473;-76
2022/08/22 10:30:10;;;;;;;3.33;3.03;;;;;;;29.84;32.97;99245.28;4917041;29;20919;-76
2022/08/22 10:32:52;;;;;;;3.03;2.60;;;;;;;29.89;32.82;99248.13;4920070;29;21179;-75
2022/08/22 10:35:53;;;;;;;3.77;2.57;;;;;;;30.10;33.07;99242.16;4912886;29;20529;-76
2022/08/22 10:38:32;;;;;;;2.63;2.43;;;;;;;30.32;33.05;99247.03;4916857;29;20541;-76
2022/08/22 10:41:12;;;;;;;4.17;2.30;;;;;;;30.29;33.04;99247.53;4920648;29;20471;-76
2022/08/22 10:43:47;;;;;;;4.60;3.40;;;;;;;30.16;32.81;99240.41;4920366;29;20494;-76
2022/08/22 10:46:16;;;;;;;4.70;3.40;;;;;;;30.04;33.11;99242.28;4920503;29;20458;-74
2022/08/22 10:48:50;;;;;;;4.53;4.03;;;;;;;30.05;32.85;99236.63;4919258;29;20503;-74
2022/08/22 10:51:37;;;;;;;4.93;3.10;;;;;;;30.11;32.81;99232.16;4917865;29;20481;-74
2022/08/22 10:54:44;;;;;;;4.43;3.10;;;;;;;30.18;32.90;99230.97;4919571;29;20454;-74
2022/08/22 10:57:15;;;;;;;6.40;3.07;;;;;;;30.31;32.55;99229.97;4918049;29;20477;-76
2022/08/22 11:00:02;;;;;;;3.70;3.17;;;;;;;30.40;32.05;99233.13;4919019;29;20451;-74
2022/08/22 11:02:49;;;;;;;3.27;2.67;;;;;;;30.41;31.87;99232.09;4920311;29;21149;-76
2022/08/22 11:05:26;;;;;;;5.30;3.00;;;;;;;30.31;32.05;99227.25;4919025;29;20469;-76
2022/08/22 11:08:26;;;;;;;4.00;3.47;;;;;;;30.31;32.16;99221.03;4916550;29;20485;-75
2022/08/22 11:11:15;;;;;;;4.70;3.30;;;;;;;30.38;31.87;99219.00;4917982;29;20510;-74
2022/08/22 11:14:16;;;;;;;3.93;2.77;;;;;;;30.41;32.13;99216.66;4916353;29;20478;-75
2022/08/22 11:17:02;;;;;;;3.00;2.53;;;;;;;30.42;32.19;99207.44;4849653;29;20510;-76
2022/08/22 11:19:48;;;;;;;4.07;2.80;;;;;;;30.25;31.09;99206.53;4917720;29;20459;-76
2022/08/22 11:22:50;;;;;;;5.30;2.87;;;;;;;30.13;31.86;99201.06;4919241;29;20478;-74
2022/08/22 11:25:25;;;;;;;3.33;3.13;;;;;;;30.02;32.02;99196.47;4916499;29;20553;-74
2022/08/22 11:28:01;;;;;;;4.07;2.60;;;;;;;29.85;31.92;99204.47;4915778;29;20557;-76
2022/08/22 11:30:35;;;;;;;4.20;2.67;;;;;;;29.83;31.93;99194.94;4918558;29;20992;-73
2022/08/22 11:33:22;;;;;;;5.40;2.60;;;;;;;29.88;31.63;99193.16;4918942;29;20490;-74
2022/08/22 11:36:08;;;;;;;3.30;3.00;;;;;;;29.89;31.29;99192.09;4918533;29;20459;-74
2022/08/22 11:38:57;;;;;;;4.10;2.70;;;;;;;29.87;31.13;99186.09;4920743;29;20466;-75
2022/08/22 11:41:35;;;;;;;3.37;3.00;;;;;;;29.86;31.89;99184.44;4921359;29;20503;-75
2022/08/22 11:44:07;;;;;;;3.43;2.70;;;;;;;29.85;31.51;99180.09;4920558;29;20473;-76
2022/08/22 11:46:39;;;;;;;4.03;2.20;;;;;;;29.87;30.75;99178.00;4922155;29;20462;-75
2022/08/22 11:49:25;;;;;;;3.97;3.60;;;;;;;29.95;29.87;99182.25;4922983;29;21022;-76
2022/08/22 11:52:14;;;;;;;2.50;2.30;;;;;;;29.99;29.74;99183.41;4921154;29;20513;-75
2022/08/22 11:54:46;;;;;;;3.50;2.87;;;;;;;29.96;29.71;99173.88;4920255;29;20451;-74
2022/08/22 11:57:17;;;;;;;3.43;2.70;;;;;;;29.97;30.23;99166.56;4921766;29;20458;-74
2022/08/22 12:00:01;;;;;;;3.40;2.73;;;;;;;30.03;30.27;99162.94;4921661;29;20461;-74
2022/08/22 12:03:04;;;;;;;3.58;2.80;;;;;;;30.19;30.12;99164.06;4918961;29;20508;-74
2022/08/22 12:05:35;;;;;;;4.50;2.67;;;;;;;30.20;30.33;99157.63;4920725;29;20207;-73
2022/08/22 12:08:14;;;;;;;5.43;3.30;;;;;;;30.27;30.43;99154.81;4921661;29;20458;-77
2022/08/22 12:11:04;;;;;;;2.67;2.47;;;;;;;30.35;30.05;99162.56;4920728;29;20573;-76
2022/08/22 12:13:48;;;;;;;4.63;2.43;;;;;;;30.36;29.89;99161.53;4920020;29;20502;-74
2022/08/22 12:16:25;;;;;;;2.80;2.17;;;;;;;30.37;29.36;99157.75;4921206;29;20465;-74
2022/08/22 12:19:18;;;;;;;3.00;2.80;;;;;;;30.33;28.82;99159.28;4922627;29;20533;-75
2022/08/22 12:22:10;;;;;;;8.90;2.77;;;;;;;30.32;28.88;99158.44;4920489;29;20493;-75
2022/08/22 12:25:14;;;;;;;4.13;2.80;;;;;;;30.30;28.92;99149.75;4921619;29;20565;-75
2022/08/22 12:27:49;;;;;;;4.40;2.90;;;;;;;30.29;29.12;99150.78;4920988;29;20454;-75
2022/08/22 12:30:31;;;;;;;2.20;2.00;;;;;;;30.33;29.48;99143.03;4920584;29;20545;-77
2022/08/22 12:32:57;;;;;;;4.73;2.70;;;;;;;30.36;29.07;99142.56;4920117;29;20455;-75
2022/08/22 12:35:37;;;;;;;4.10;2.83;;;;;;;30.37;28.84;99141.47;4921187;29;20473;-74
2022/08/22 12:38:22;;;;;;;3.10;2.57;;;;;;;30.39;28.68;99136.66;4921239;29;20226;-76
2022/08/22 12:41:05;;;;;;;5.13;2.87;;;;;;;30.41;27.41;99131.84;4920559;29;20471;-74